Time;durP1;ratioP1;P1;durP2;ratioP2;P2;SDS_P1;SDS_P2;PMS_P1;PMS_P2;Temp;Humidity;BMP_temperature;BMP_pressure;BME280_temperature;BME280_humidity;BME280_pressure;Samples;Min_cycle;Max_cycle;Signal;HPM_P1;HPM_P2
2023/10/31 00:01:00;;;;;;;1.67;0.40;;;;;;;9.53;100.00;91616.78;2082884;28;20022;-87
2023/10/31 00:02:01;;;;;;;0.40;0.40;;;;;;;9.52;100.00;91615.28;2080749;28;20067;-86
2023/10/31 00:03:03;;;;;;;0.90;0.55;;;;;;;9.49;100.00;91611.59;2090949;28;20032;-87
2023/10/31 00:04:04;;;;;;;1.45;0.90;;;;;;;9.69;100.00;91607.72;2098013;28;20048;-85
2023/10/31 00:05:05;;;;;;;1.30;0.68;;;;;;;9.59;100.00;91607.00;2107106;28;20110;-87
2023/10/31 00:06:06;;;;;;;0.38;0.38;;;;;;;9.64;100.00;91614.41;2089609;28;20031;-87
2023/10/31 00:07:07;;;;;;;0.65;0.40;;;;;;;9.72;100.00;91604.19;2080263;28;20021;-88
2023/10/31 00:08:08;;;;;;;0.50;0.50;;;;;;;9.46;100.00;91604.50;2090322;28;20173;-86
2023/10/31 00:09:10;;;;;;;0.93;0.40;;;;;;;9.45;100.00;91603.00;2085815;28;20017;-88
2023/10/31 00:10:11;;;;;;;0.57;0.57;;;;;;;9.43;100.00;91601.97;2098860;28;20074;-87
2023/10/31 00:11:12;;;;;;;1.30;0.50;;;;;;;9.38;100.00;91603.31;2088512;28;20028;-87
2023/10/31 00:12:13;;;;;;;1.25;0.60;;;;;;;9.40;100.00;91602.88;2082037;28;20474;-87
2023/10/31 00:13:14;;;;;;;0.68;0.47;;;;;;;9.41;100.00;91597.09;2082057;28;20137;-86
2023/10/31 00:14:15;;;;;;;1.95;0.40;;;;;;;9.39;100.00;91599.44;2080338;28;20181;-86
2023/10/31 00:15:16;;;;;;;1.55;0.50;;;;;;;9.33;100.00;91596.63;2082620;28;20021;-85
2023/10/31 00:16:17;;;;;;;1.48;0.40;;;;;;;9.40;100.00;91605.53;2082899;28;20036;-90
2023/10/31 00:17:18;;;;;;;0.80;0.50;;;;;;;9.50;100.00;91599.75;2089918;28;20037;-87
2023/10/31 00:18:19;;;;;;;0.50;0.50;;;;;;;9.48;100.00;91602.13;2095782;28;20021;-87
2023/10/31 00:19:20;;;;;;;0.63;0.50;;;;;;;9.55;100.00;91603.75;2090298;28;20025;-86
2023/10/31 00:20:21;;;;;;;2.15;0.60;;;;;;;9.56;100.00;91602.56;2098671;28;20020;-89
2023/10/31 00:21:22;;;;;;;1.67;0.50;;;;;;;9.50;100.00;91604.34;2088278;28;20090;-90
2023/10/31 00:22:23;;;;;;;0.55;0.45;;;;;;;9.57;100.00;91610.13;2090376;28;20429;-86
2023/10/31 00:23:24;;;;;;;2.10;0.57;;;;;;;9.50;100.00;91605.06;2092813;28;20102;-86
2023/10/31 00:24:25;;;;;;;2.33;0.82;;;;;;;9.56;100.00;91600.63;2114174;28;20019;-87
2023/10/31 00:25:26;;;;;;;0.68;0.60;;;;;;;9.52;100.00;91599.28;2097263;28;20031;-89
2023/10/31 00:26:27;;;;;;;2.10;0.60;;;;;;;9.53;100.00;91590.88;1996853;28;23736;-85
2023/10/31 00:27:28;;;;;;;3.42;0.60;;;;;;;9.49;100.00;91606.28;2023986;28;20539;-86
2023/10/31 00:28:29;;;;;;;2.15;0.60;;;;;;;9.37;100.00;91599.16;2030203;28;20050;-88
2023/10/31 00:29:30;;;;;;;0.70;0.57;;;;;;;9.40;100.00;91600.94;2034821;28;20024;-86
2023/10/31 00:30:31;;;;;;;0.80;0.50;;;;;;;9.54;100.00;91599.59;2036929;28;20063;-87
2023/10/31 00:31:34;;;;;;;0.60;0.50;;;;;;;9.30;100.00;91602.09;2043534;28;20031;-86
2023/10/31 00:32:35;;;;;;;0.63;0.52;;;;;;;9.28;100.00;91599.91;2055536;28;20062;-86
2023/10/31 00:33:37;;;;;;;3.47;0.55;;;;;;;9.32;100.00;91610.41;2050579;28;23532;-88
2023/10/31 00:34:38;;;;;;;1.40;0.50;;;;;;;9.21;100.00;91610.84;2055439;28;20028;-85
2023/10/31 00:35:38;;;;;;;0.68;0.60;;;;;;;9.21;100.00;91610.84;2068757;28;23295;-87
2023/10/31 00:36:39;;;;;;;2.22;0.40;;;;;;;9.20;100.00;91611.28;2073612;28;20117;-87
2023/10/31 00:37:40;;;;;;;0.63;0.40;;;;;;;9.15;100.00;91614.56;2080327;28;20024;-89
2023/10/31 00:38:41;;;;;;;0.60;0.50;;;;;;;9.29;100.00;91609.38;2080658;28;20039;-86
2023/10/31 00:39:42;;;;;;;0.30;0.30;;;;;;;9.29;100.00;91612.03;2072110;28;20064;-87
2023/10/31 00:40:43;;;;;;;0.75;0.40;;;;;;;9.25;100.00;91616.78;2078724;28;20021;-86
2023/10/31 00:41:48;;;;;;;0.85;0.50;;;;;;;9.13;100.00;91617.66;2083735;28;20048;-90
2023/10/31 00:42:48;;;;;;;0.60;0.50;;;;;;;9.28;100.00;91620.50;2089785;28;20505;-87
2023/10/31 00:43:50;;;;;;;0.95;0.50;;;;;;;9.16;100.00;91621.34;2096780;28;20020;-86
2023/10/31 00:44:51;;;;;;;1.05;0.50;;;;;;;9.22;100.00;91623.00;2096880;28;20028;-88
2023/10/31 00:45:51;;;;;;;0.70;0.50;;;;;;;9.17;100.00;91623.56;2098526;28;20036;-87
2023/10/31 00:47:05;;;;;;;0.40;0.40;;;;;;;9.09;100.00;91630.41;2096719;28;20509;-89
2023/10/31 00:48:06;;;;;;;2.80;0.73;;;;;;;9.09;100.00;91625.06;2101589;28;20016;-88
2023/10/31 00:49:06;;;;;;;0.80;0.40;;;;;;;9.41;100.00;91623.00;2096610;28;20070;-89
2023/10/31 00:50:08;;;;;;;0.50;0.50;;;;;;;9.37;100.00;91627.75;2095922;28;20028;-86
2023/10/31 00:51:09;;;;;;;2.83;0.57;;;;;;;9.31;100.00;91627.59;2100204;28;20495;-90
2023/10/31 00:52:10;;;;;;;0.50;0.50;;;;;;;9.27;100.00;91632.34;2052297;28;20031;-85
2023/10/31 00:53:13;;;;;;;0.82;0.40;;;;;;;9.18;100.00;91629.66;2022745;28;20111;-89
2023/10/31 00:54:14;;;;;;;0.60;0.30;;;;;;;9.32;100.00;91634.41;2029160;28;20471;-89
2023/10/31 00:55:15;;;;;;;1.70;0.40;;;;;;;9.34;100.00;91632.78;2020292;28;20145;-90
2023/10/31 00:56:16;;;;;;;0.77;0.50;;;;;;;9.37;100.00;91630.41;2041376;28;23451;-87
2023/10/31 00:57:17;;;;;;;0.30;0.30;;;;;;;9.50;100.00;91631.00;2049920;28;20032;-87
2023/10/31 00:58:18;;;;;;;1.95;0.70;;;;;;;9.58;100.00;91627.59;2051118;28;20036;-87
2023/10/31 00:59:19;;;;;;;0.50;0.35;;;;;;;9.50;100.00;91639.00;2069982;28;20155;-84
2023/10/31 01:00:20;;;;;;;1.45;0.32;;;;;;;9.33;100.00;91638.56;2078330;28;20093;-83
2023/10/31 01:01:21;;;;;;;0.68;0.40;;;;;;;9.31;100.00;91631.00;2078167;28;20847;-87
2023/10/31 01:02:22;;;;;;;1.40;0.50;;;;;;;9.30;100.00;91636.78;2085870;28;20086;-87
2023/10/31 01:03:23;;;;;;;0.60;0.40;;;;;;;9.21;100.00;91637.50;2097883;28;20023;-87
2023/10/31 01:04:25;;;;;;;1.10;0.50;;;;;;;9.12;100.00;91624.16;2106093;28;20115;-85
2023/10/31 01:05:29;;;;;;;0.50;0.40;;;;;;;9.07;100.00;91627.41;2096579;28;20020;-89
2023/10/31 01:06:30;;;;;;;0.40;0.30;;;;;;;9.22;100.00;91624.91;2089887;28;20020;-86
2023/10/31 01:07:31;;;;;;;0.52;0.40;;;;;;;9.09;100.00;91622.41;2087910;28;20048;-84
2023/10/31 01:08:32;;;;;;;1.42;0.85;;;;;;;9.16;100.00;91627.44;2091937;28;20478;-88
2023/10/31 01:09:33;;;;;;;0.70;0.40;;;;;;;9.29;100.00;91632.63;2098306;28;20020;-86
2023/10/31 01:10:34;;;;;;;0.75;0.40;;;;;;;9.25;100.00;91632.78;2096715;28;20086;-88
2023/10/31 01:11:36;;;;;;;0.50;0.50;;;;;;;9.14;100.00;91626.41;2106192;28;20492;-88
2023/10/31 01:12:37;;;;;;;0.47;0.40;;;;;;;9.12;100.00;91636.75;2103943;28;20039;-88
2023/10/31 01:13:38;;;;;;;2.15;0.40;;;;;;;9.03;100.00;91629.47;2113457;28;20020;-86
2023/10/31 01:14:39;;;;;;;3.22;0.70;;;;;;;9.02;100.00;91631.41;2046494;28;20070;-86
2023/10/31 01:15:40;;;;;;;1.23;0.50;;;;;;;8.68;100.00;91644.94;2018540;28;21425;-86
2023/10/31 01:16:41;;;;;;;2.90;0.60;;;;;;;8.94;100.00;91637.47;2032344;28;20024;-86
2023/10/31 01:17:42;;;;;;;0.57;0.50;;;;;;;9.07;100.00;91635.41;2034404;28;20032;-86
2023/10/31 01:18:43;;;;;;;0.70;0.50;;;;;;;9.14;100.00;91639.72;2046575;28;20163;-88
2023/10/31 01:19:43;;;;;;;0.52;0.50;;;;;;;8.93;100.00;91642.06;2056661;28;22405;-86
2023/10/31 01:20:44;;;;;;;1.38;0.55;;;;;;;9.10;100.00;91642.53;2068929;28;21046;-87
2023/10/31 01:21:45;;;;;;;1.30;0.40;;;;;;;9.07;100.00;91641.47;2079783;28;20150;-87
2023/10/31 01:22:46;;;;;;;0.63;0.40;;;;;;;9.03;100.00;91642.81;2088113;28;20024;-86
2023/10/31 01:23:47;;;;;;;0.60;0.60;;;;;;;9.05;100.00;91646.53;2091340;28;20556;-86
2023/10/31 01:24:48;;;;;;;0.50;0.35;;;;;;;8.99;100.00;91663.53;2096923;28;20092;-87
2023/10/31 01:25:49;;;;;;;2.33;0.50;;;;;;;8.96;100.00;91654.50;2095161;28;20025;-86
2023/10/31 01:26:50;;;;;;;0.50;0.50;;;;;;;9.05;100.00;91657.19;2098089;28;20111;-88
2023/10/31 01:27:51;;;;;;;1.17;0.50;;;;;;;9.11;100.00;91654.69;2091758;28;20032;-87
2023/10/31 01:28:52;;;;;;;0.73;0.60;;;;;;;8.91;100.00;91655.09;2098131;28;20168;-87
2023/10/31 01:29:53;;;;;;;1.05;0.47;;;;;;;8.86;100.00;91654.91;2104345;28;20051;-86
2023/10/31 01:30:54;;;;;;;1.73;0.60;;;;;;;8.96;100.00;91653.75;2105476;28;20364;-86
2023/10/31 01:31:55;;;;;;;1.30;0.73;;;;;;;8.93;100.00;91649.31;2096185;28;20020;-86
2023/10/31 01:32:56;;;;;;;1.65;0.50;;;;;;;9.09;100.00;91651.72;2089774;28;20374;-85
2023/10/31 01:33:57;;;;;;;1.17;0.50;;;;;;;9.02;100.00;91652.00;2091991;28;20028;-87
2023/10/31 01:34:58;;;;;;;0.75;0.40;;;;;;;9.15;100.00;91659.88;2084462;28;20025;-87
2023/10/31 01:35:59;;;;;;;1.40;0.50;;;;;;;9.17;100.00;91660.91;2088777;28;20112;-87
2023/10/31 01:37:00;;;;;;;0.85;0.30;;;;;;;9.23;100.00;91661.06;2096189;28;20102;-85
2023/10/31 01:38:01;;;;;;;1.25;0.50;;;;;;;9.30;100.00;91666.09;2034428;28;20456;-86
2023/10/31 01:39:02;;;;;;;0.57;0.30;;;;;;;9.16;100.00;91667.41;2021114;28;20024;-86
2023/10/31 01:40:04;;;;;;;1.27;0.50;;;;;;;9.21;100.00;91672.16;2038229;28;20076;-86
2023/10/31 01:41:05;;;;;;;0.73;0.40;;;;;;;9.26;100.00;91681.50;2026896;28;20123;-85
2023/10/31 01:42:06;;;;;;;0.82;0.50;;;;;;;9.09;100.00;91681.03;2021969;28;20024;-86
2023/10/31 01:43:07;;;;;;;0.45;0.40;;;;;;;9.10;100.00;91679.84;2044709;28;20051;-87
2023/10/31 01:44:09;;;;;;;0.85;0.43;;;;;;;8.97;100.00;91687.97;2050580;28;20063;-81
2023/10/31 01:45:10;;;;;;;0.30;0.30;;;;;;;9.04;100.00;91694.94;2058674;28;20060;-83
2023/10/31 01:46:11;;;;;;;0.63;0.50;;;;;;;9.06;100.00;91695.25;2066471;28;20769;-83
2023/10/31 01:47:12;;;;;;;0.40;0.40;;;;;;;9.03;100.00;91704.09;2079587;28;20028;-85
2023/10/31 01:48:13;;;;;;;0.35;0.30;;;;;;;9.00;100.00;91700.41;2080542;28;20036;-82
2023/10/31 01:49:14;;;;;;;2.25;0.32;;;;;;;8.97;100.00;91700.53;2089572;28;20485;-83
2023/10/31 01:50:17;;;;;;;1.17;0.50;;;;;;;9.03;100.00;91702.19;2097922;28;20532;-84
2023/10/31 01:51:18;;;;;;;0.40;0.40;;;;;;;9.15;100.00;91702.53;2091346;28;20029;-83
2023/10/31 01:52:19;;;;;;;1.65;0.47;;;;;;;9.17;100.00;91698.22;2097835;28;20421;-84
2023/10/31 01:53:21;;;;;;;0.45;0.45;;;;;;;9.04;100.00;91695.69;2093086;28;20048;-83
2023/10/31 01:54:22;;;;;;;0.98;0.55;;;;;;;9.09;100.00;91697.03;2089241;28;20090;-83
2023/10/31 01:55:27;;;;;;;0.95;0.40;;;;;;;9.12;100.00;91698.06;2079045;28;20545;-83
2023/10/31 01:56:28;;;;;;;0.50;0.38;;;;;;;8.92;100.00;91696.53;2092710;28;20481;-82
2023/10/31 01:57:29;;;;;;;2.50;0.40;;;;;;;9.02;100.00;91699.97;2082617;28;20021;-83
2023/10/31 01:58:35;;;;;;;0.65;0.35;;;;;;;9.03;100.00;91691.53;2088153;28;20024;-85
2023/10/31 01:59:36;;;;;;;1.02;0.50;;;;;;;9.05;100.00;91699.09;2092204;28;20158;-84
2023/10/31 02:00:40;;;;;;;0.82;0.40;;;;;;;8.93;100.00;91700.69;2091144;28;20045;-85
2023/10/31 02:01:42;;;;;;;2.95;0.50;;;;;;;9.02;100.00;91699.97;2098260;28;20123;-83
2023/10/31 02:02:43;;;;;;;0.40;0.40;;;;;;;9.05;100.00;91699.84;2087357;28;20056;-84
2023/10/31 02:03:44;;;;;;;2.05;0.40;;;;;;;8.97;100.00;91700.53;2089451;28;20056;-83
2023/10/31 02:04:45;;;;;;;1.75;0.50;;;;;;;8.96;100.00;91696.41;2089466;28;20101;-83
2023/10/31 02:05:47;;;;;;;1.85;0.32;;;;;;;8.97;100.00;91698.63;2088514;28;20426;-83
2023/10/31 02:06:48;;;;;;;1.05;0.40;;;;;;;8.97;100.00;91695.97;2096893;28;20070;-83
2023/10/31 02:07:49;;;;;;;0.40;0.20;;;;;;;9.00;100.00;91704.97;2086414;28;20078;-84
2023/10/31 02:08:50;;;;;;;0.40;0.30;;;;;;;8.89;100.00;91702.00;2088052;28;20031;-84
2023/10/31 02:09:51;;;;;;;0.88;0.73;;;;;;;9.02;100.00;91702.63;2056636;28;21172;-83
2023/10/31 02:10:52;;;;;;;0.30;0.28;;;;;;;9.15;100.00;91699.84;2009577;28;20686;-82
2023/10/31 02:11:53;;;;;;;0.30;0.30;;;;;;;8.94;100.00;91690.75;2029759;28;20032;-85
2023/10/31 02:12:54;;;;;;;0.30;0.30;;;;;;;8.97;100.00;91687.97;2023006;28;21589;-84
2023/10/31 02:13:55;;;;;;;2.13;0.25;;;;;;;8.94;100.00;91688.84;2027805;28;20434;-82
2023/10/31 02:14:56;;;;;;;1.65;0.30;;;;;;;8.89;100.00;91689.41;2042302;28;20028;-84
2023/10/31 02:15:57;;;;;;;3.38;0.40;;;;;;;8.94;100.00;91691.50;2050387;28;20056;-83
2023/10/31 02:16:58;;;;;;;0.75;0.40;;;;;;;8.98;100.00;91692.09;2048672;28;20840;-83
2023/10/31 02:17:59;;;;;;;1.65;0.35;;;;;;;8.92;100.00;91703.78;2061757;28;20714;-83
2023/10/31 02:19:00;;;;;;;3.00;0.40;;;;;;;8.69;100.00;91699.69;2065760;28;20575;-83
2023/10/31 02:20:01;;;;;;;0.32;0.32;;;;;;;8.74;100.00;91709.78;2083813;28;20102;-83
2023/10/31 02:21:03;;;;;;;0.50;0.32;;;;;;;8.74;100.00;91713.19;2092242;28;20115;-84
2023/10/31 02:24:00;;;;;;;;;;;;;;;7.82;100.00;91722.53;2042974;27;20183;-76
2023/10/31 02:25:01;;;;;;;0.22;0.22;;;;;;;7.81;100.00;91721.03;2043465;28;20990;-80
2023/10/31 02:26:03;;;;;;;1.13;0.40;;;;;;;7.85;100.00;91712.94;2045236;27;20031;-77
2023/10/31 02:27:06;;;;;;;0.40;0.40;;;;;;;7.78;100.00;91712.00;2064987;27;20038;-78
2023/10/31 02:28:07;;;;;;;0.38;0.38;;;;;;;7.78;100.00;91704.03;2063881;28;20887;-81
2023/10/31 02:29:08;;;;;;;0.93;0.40;;;;;;;7.84;100.00;91706.88;2084629;27;20078;-81
2023/10/31 02:30:09;;;;;;;0.93;0.43;;;;;;;7.76;100.00;91718.94;2099149;27;20244;-79
2023/10/31 02:31:11;;;;;;;0.35;0.35;;;;;;;7.75;100.00;91712.88;2105070;27;20112;-82
2023/10/31 02:32:12;;;;;;;0.80;0.40;;;;;;;7.90;100.00;91709.72;2115926;27;20032;-79
2023/10/31 02:33:13;;;;;;;0.30;0.30;;;;;;;7.97;100.00;91712.16;2119366;28;20466;-80
2023/10/31 02:34:14;;;;;;;0.73;0.30;;;;;;;7.88;100.00;91710.16;2113059;28;20024;-79
2023/10/31 02:35:17;;;;;;;0.40;0.30;;;;;;;7.83;100.00;91718.69;2111936;28;20028;-82
2023/10/31 02:36:19;;;;;;;0.88;0.40;;;;;;;7.75;100.00;91712.13;2121569;28;20020;-80
2023/10/31 02:37:19;;;;;;;1.13;0.50;;;;;;;7.69;100.00;91711.22;2111118;28;20488;-80
2023/10/31 02:38:20;;;;;;;1.13;0.35;;;;;;;7.82;100.00;91703.91;2121650;28;20030;-79
2023/10/31 02:39:21;;;;;;;0.40;0.40;;;;;;;7.86;100.00;91707.22;2122139;28;20027;-79
2023/10/31 02:40:22;;;;;;;0.60;0.40;;;;;;;7.75;100.00;91710.22;2119015;28;20027;-78
2023/10/31 02:41:23;;;;;;;0.60;0.50;;;;;;;7.82;100.00;91704.66;2110305;28;20047;-78
2023/10/31 02:42:24;;;;;;;1.50;0.50;;;;;;;7.83;100.00;91708.81;2120871;27;20024;-82
2023/10/31 02:43:25;;;;;;;0.20;0.20;;;;;;;7.77;100.00;91712.44;2059448;27;20171;-79
2023/10/31 02:44:26;;;;;;;0.30;0.30;;;;;;;7.85;100.00;91713.69;2027867;27;20027;-81
2023/10/31 02:45:27;;;;;;;0.63;0.45;;;;;;;7.82;100.00;91717.97;2035492;27;20034;-80
2023/10/31 02:46:28;;;;;;;1.92;0.40;;;;;;;7.75;100.00;91715.53;2048918;27;20100;-80
2023/10/31 02:47:29;;;;;;;0.57;0.32;;;;;;;7.76;100.00;91714.34;2050631;28;20035;-80
2023/10/31 02:48:37;;;;;;;0.43;0.40;;;;;;;7.75;100.00;91710.22;2067485;27;21544;-81
2023/10/31 02:49:38;;;;;;;0.43;0.30;;;;;;;7.67;100.00;91710.88;2075374;27;20022;-81
2023/10/31 02:50:39;;;;;;;0.38;0.20;;;;;;;7.85;100.00;91718.25;2081890;27;20019;-81
2023/10/31 02:51:41;;;;;;;0.30;0.30;;;;;;;7.88;100.00;91714.75;2090106;27;20027;-80
2023/10/31 02:52:42;;;;;;;0.90;0.40;;;;;;;7.87;100.00;91723.91;2096376;27;21601;-80
2023/10/31 02:53:43;;;;;;;2.67;0.43;;;;;;;7.75;100.00;91728.84;2111213;27;20727;-79
2023/10/31 02:54:44;;;;;;;0.45;0.32;;;;;;;7.80;100.00;91725.63;2119656;27;20866;-78
2023/10/31 02:55:45;;;;;;;0.20;0.20;;;;;;;7.76;100.00;91734.88;2127647;27;20040;-80
2023/10/31 02:56:46;;;;;;;1.23;0.40;;;;;;;7.65;100.00;91726.53;2130115;27;20023;-81
2023/10/31 02:57:47;;;;;;;0.50;0.30;;;;;;;7.73;100.00;91728.53;2122768;27;20023;-82
2023/10/31 02:58:48;;;;;;;0.38;0.30;;;;;;;7.75;100.00;91733.41;2122230;28;20028;-81
2023/10/31 02:59:49;;;;;;;1.08;0.30;;;;;;;7.78;100.00;91732.56;2124593;27;20067;-80
2023/10/31 03:00:50;;;;;;;1.65;0.30;;;;;;;7.78;100.00;91735.22;2129789;27;20014;-81
2023/10/31 03:01:52;;;;;;;1.00;0.40;;;;;;;7.75;100.00;91741.38;2116788;27;20023;-81
2023/10/31 03:02:53;;;;;;;5.78;0.65;;;;;;;7.80;100.00;91740.84;2129901;27;20101;-80
2023/10/31 03:03:54;;;;;;;0.65;0.30;;;;;;;7.81;100.00;91744.97;2127940;27;20022;-82
2023/10/31 03:04:55;;;;;;;0.93;0.35;;;;;;;7.93;100.00;91741.53;2119066;27;20149;-80
2023/10/31 03:05:56;;;;;;;1.05;0.30;;;;;;;7.95;100.00;91746.44;2123612;27;20084;-79
2023/10/31 03:06:57;;;;;;;0.38;0.30;;;;;;;7.78;100.00;91751.19;2122733;27;20015;-82
2023/10/31 03:07:58;;;;;;;0.80;0.47;;;;;;;7.78;100.00;91751.91;2121178;28;20456;-78
2023/10/31 03:08:59;;;;;;;4.45;0.32;;;;;;;7.79;100.00;91747.34;2128071;27;20018;-80
2023/10/31 03:10:00;;;;;;;1.05;0.45;;;;;;;7.68;100.00;91752.25;2130049;27;20015;-78
2023/10/31 03:11:02;;;;;;;2.25;0.43;;;;;;;7.75;100.00;91754.69;2120158;27;20392;-80
2023/10/31 03:12:03;;;;;;;0.43;0.35;;;;;;;7.66;100.00;91757.28;2121393;28;20020;-80
2023/10/31 03:13:04;;;;;;;1.17;0.60;;;;;;;7.57;100.00;91745.38;2128136;27;20018;-80
2023/10/31 03:14:05;;;;;;;0.57;0.50;;;;;;;7.68;100.00;91750.38;2125605;27;20041;-80
2023/10/31 03:15:06;;;;;;;0.50;0.50;;;;;;;7.72;100.00;91758.19;2125755;27;20460;-81
2023/10/31 03:16:07;;;;;;;0.60;0.60;;;;;;;7.84;100.00;91752.09;2124723;27;20106;-84
2023/10/31 03:17:09;;;;;;;0.52;0.30;;;;;;;7.99;100.00;91747.78;2126302;27;20019;-81
2023/10/31 03:18:10;;;;;;;1.33;0.32;;;;;;;7.78;100.00;91759.16;2118032;27;20019;-81
2023/10/31 03:19:11;;;;;;;1.63;0.50;;;;;;;7.70;100.00;91753.31;2128167;27;20052;-78
2023/10/31 03:20:12;;;;;;;0.40;0.40;;;;;;;7.83;100.00;91753.28;2129954;27;20019;-84
2023/10/31 03:21:13;;;;;;;4.07;0.40;;;;;;;7.81;100.00;91759.03;2114467;27;20031;-79
2023/10/31 03:22:14;;;;;;;0.52;0.30;;;;;;;7.71;100.00;91760.13;2129742;27;20115;-81
2023/10/31 03:23:24;;;;;;;0.32;0.30;;;;;;;7.72;100.00;91758.94;2126428;27;20051;-77
2023/10/31 03:24:25;;;;;;;;;;;;;;;7.79;100.00;91760.63;2128878;27;20043;-78
2023/10/31 03:25:26;;;;;;;0.98;0.40;;;;;;;7.67;100.00;91751.50;2109045;28;19908;-81
2023/10/31 03:26:27;;;;;;;1.55;0.20;;;;;;;7.74;100.00;91755.88;2112956;27;20047;-80
2023/10/31 03:27:27;;;;;;;0.20;0.20;;;;;;;7.83;100.00;91755.94;2127474;27;20659;-79
2023/10/31 03:28:28;;;;;;;0.32;0.22;;;;;;;7.89;100.00;91756.88;2121175;28;20023;-79
2023/10/31 03:29:29;;;;;;;0.90;0.30;;;;;;;8.06;100.00;91757.44;2121158;27;20102;-79
2023/10/31 03:30:30;;;;;;;0.63;0.63;;;;;;;8.09;100.00;91753.94;2121728;27;20043;-80
2023/10/31 03:31:31;;;;;;;0.20;0.20;;;;;;;7.75;100.00;91765.31;2119948;27;20030;-79
2023/10/31 03:32:32;;;;;;;0.30;0.30;;;;;;;7.83;100.00;91753.28;2118850;27;20020;-79
2023/10/31 03:33:33;;;;;;;0.88;0.20;;;;;;;7.78;100.00;91770.53;2121242;28;20016;-79
2023/10/31 03:34:34;;;;;;;0.22;0.22;;;;;;;7.80;100.00;91760.19;2125183;27;20018;-79
2023/10/31 03:35:35;;;;;;;0.20;0.20;;;;;;;7.73;100.00;91770.34;2115959;28;20031;-79
2023/10/31 03:36:36;;;;;;;0.17;0.17;;;;;;;7.78;100.00;91759.16;2124187;27;20027;-79
2023/10/31 03:37:41;;;;;;;2.72;0.35;;;;;;;7.83;100.00;91767.31;2122201;27;20567;-79
2023/10/31 03:38:42;;;;;;;0.17;0.10;;;;;;;7.87;100.00;91761.88;2116083;27;20389;-81
2023/10/31 03:39:43;;;;;;;0.20;0.20;;;;;;;7.76;100.00;91774.78;2118209;27;20053;-81
2023/10/31 03:40:43;;;;;;;2.50;0.20;;;;;;;7.77;100.00;91778.94;2111241;28;20019;-81
2023/10/31 03:41:46;;;;;;;0.20;0.20;;;;;;;7.81;100.00;91772.34;2103415;28;20053;-78
2023/10/31 03:42:47;;;;;;;0.20;0.20;;;;;;;7.74;100.00;91774.47;2106618;28;20082;-81
2023/10/31 03:43:48;;;;;;;3.38;0.30;;;;;;;7.76;100.00;91775.53;2115015;27;20032;-79
2023/10/31 03:44:49;;;;;;;0.10;0.10;;;;;;;7.87;100.00;91785.09;2118863;27;20098;-81
2023/10/31 03:45:51;;;;;;;0.20;0.20;;;;;;;7.80;100.00;91789.44;2115344;28;20036;-82
2023/10/31 03:46:52;;;;;;;0.63;0.28;;;;;;;7.70;100.00;91784.50;2110914;28;20076;-79
2023/10/31 03:47:53;;;;;;;0.40;0.25;;;;;;;7.80;100.00;91783.41;2115237;28;20791;-82
2023/10/31 03:48:54;;;;;;;0.30;0.30;;;;;;;7.81;100.00;91782.97;2116893;27;20054;-79
2023/10/31 03:49:55;;;;;;;1.10;0.35;;;;;;;7.78;100.00;91785.75;2121363;27;20030;-82
2023/10/31 03:50:56;;;;;;;2.13;0.43;;;;;;;7.71;100.00;91785.97;2120014;27;20023;-82
2023/10/31 03:51:57;;;;;;;0.57;0.57;;;;;;;7.64;100.00;91786.19;2109242;28;20031;-78
2023/10/31 03:52:58;;;;;;;0.90;0.20;;;;;;;7.65;100.00;91785.03;2119064;27;20019;-80
2023/10/31 03:53:58;;;;;;;0.95;0.20;;;;;;;7.73;100.00;91789.69;2122106;27;20026;-82
2023/10/31 03:55:00;;;;;;;1.60;0.30;;;;;;;7.81;100.00;91792.84;2115387;28;20023;-83
2023/10/31 03:56:01;;;;;;;0.25;0.20;;;;;;;7.77;100.00;91789.56;2103932;27;20365;-81
2023/10/31 03:57:02;;;;;;;1.17;0.30;;;;;;;7.89;100.00;91793.38;2111464;28;20129;-81
2023/10/31 03:58:03;;;;;;;0.20;0.20;;;;;;;7.79;100.00;91798.63;2115418;28;20021;-82
2023/10/31 03:59:04;;;;;;;0.85;0.47;;;;;;;7.71;100.00;91788.63;2111061;28;20019;-79
2023/10/31 04:00:07;;;;;;;1.65;0.20;;;;;;;7.78;100.00;91802.44;2115245;28;20020;-78
2023/10/31 04:01:08;;;;;;;0.35;0.30;;;;;;;7.81;100.00;91801.59;2120153;27;20023;-79
2023/10/31 04:02:09;;;;;;;2.88;0.30;;;;;;;7.57;100.00;91793.25;2115471;28;20016;-80
2023/10/31 04:03:09;;;;;;;0.63;0.30;;;;;;;7.58;100.00;91789.41;2106263;27;20047;-79
2023/10/31 04:04:26;;;;;;;1.63;0.35;;;;;;;7.49;100.00;91791.97;2099172;28;20021;-79
2023/10/31 04:05:27;;;;;;;3.55;0.50;;;;;;;7.41;100.00;91792.63;2107596;28;20028;-80
2023/10/31 04:06:28;;;;;;;0.35;0.20;;;;;;;7.46;100.00;91787.53;2115336;28;20085;-79
2023/10/31 04:07:29;;;;;;;0.30;0.30;;;;;;;7.48;100.00;91793.16;2115389;27;20372;-81
2023/10/31 04:08:30;;;;;;;0.50;0.40;;;;;;;7.62;100.00;91797.28;2121863;27;20050;-80
2023/10/31 04:09:31;;;;;;;0.57;0.30;;;;;;;7.59;100.00;91795.47;2123947;27;20034;-80
2023/10/31 04:10:33;;;;;;;1.75;0.40;;;;;;;7.51;100.00;91789.66;2118051;27;20023;-79
2023/10/31 04:11:34;;;;;;;1.75;0.43;;;;;;;7.64;100.00;91792.28;2115273;28;20026;-80
2023/10/31 04:12:35;;;;;;;0.47;0.40;;;;;;;7.53;100.00;91795.25;2115950;27;20396;-84
2023/10/31 04:13:36;;;;;;;1.15;0.50;;;;;;;7.39;100.00;91803.69;2117861;27;20028;-79
2023/10/31 04:14:38;;;;;;;1.83;0.43;;;;;;;7.46;100.00;91798.16;2120368;27;20068;-84
2023/10/31 04:15:39;;;;;;;1.00;0.60;;;;;;;7.42;100.00;91802.84;2119676;27;20395;-81
2023/10/31 04:16:45;;;;;;;1.20;0.45;;;;;;;7.47;100.00;91799.66;2120214;27;20102;-79
2023/10/31 04:17:46;;;;;;;1.95;0.40;;;;;;;7.32;100.00;91801.97;2121529;27;20070;-78
2023/10/31 04:18:47;;;;;;;1.52;0.30;;;;;;;7.30;100.00;91803.59;2124088;27;20014;-81
2023/10/31 04:19:48;;;;;;;0.45;0.30;;;;;;;7.25;100.00;91796.16;2116051;27;20054;-82
2023/10/31 04:20:49;;;;;;;0.43;0.30;;;;;;;7.21;100.00;91793.59;2123248;27;20113;-80
2023/10/31 04:21:53;;;;;;;4.82;0.50;;;;;;;7.32;100.00;91794.00;2111926;28;20112;-79
2023/10/31 04:22:54;;;;;;;1.02;0.35;;;;;;;7.25;100.00;91798.81;2118054;27;20019;-81
2023/10/31 04:23:55;;;;;;;0.82;0.50;;;;;;;7.16;100.00;91796.06;2120252;27;20024;-82
2023/10/31 04:24:58;;;;;;;1.05;0.57;;;;;;;7.34;100.00;91796.25;2116602;27;20097;-78
2023/10/31 04:25:59;;;;;;;0.73;0.40;;;;;;;7.53;100.00;91795.25;2122223;27;20027;-79
2023/10/31 04:27:00;;;;;;;0.70;0.50;;;;;;;7.56;100.00;91799.00;2110253;28;20032;-81
2023/10/31 04:28:01;;;;;;;0.45;0.30;;;;;;;7.42;100.00;91788.78;2115226;28;20020;-80
2023/10/31 04:29:02;;;;;;;2.00;0.63;;;;;;;7.35;100.00;91795.09;2115079;27;20055;-79
2023/10/31 04:30:03;;;;;;;1.52;0.75;;;;;;;7.32;100.00;91793.28;2123587;27;20019;-80
2023/10/31 04:31:04;;;;;;;1.90;0.40;;;;;;;7.25;100.00;91788.94;2123584;27;20577;-84
2023/10/31 04:32:06;;;;;;;0.55;0.45;;;;;;;7.16;100.00;91790.75;2113523;27;20027;-79
2023/10/31 04:33:06;;;;;;;1.27;0.47;;;;;;;7.16;100.00;91794.16;2098381;28;20082;-82
2023/10/31 04:34:08;;;;;;;3.55;0.50;;;;;;;7.26;100.00;91789.66;2104439;28;20024;-78
2023/10/31 04:35:08;;;;;;;0.52;0.40;;;;;;;7.18;100.00;91793.72;2115072;28;20114;-80
2023/10/31 04:36:10;;;;;;;1.50;0.45;;;;;;;7.20;100.00;91792.13;2108891;28;20457;-79
2023/10/31 04:37:11;;;;;;;1.85;0.65;;;;;;;7.22;100.00;91804.97;2115253;28;20026;-83
2023/10/31 04:38:12;;;;;;;2.05;0.60;;;;;;;7.16;100.00;91799.47;2119754;27;20058;-82
2023/10/31 04:39:12;;;;;;;0.85;0.45;;;;;;;7.14;100.00;91793.81;2115095;28;20495;-79
2023/10/31 04:40:13;;;;;;;2.47;0.50;;;;;;;7.16;100.00;91798.72;2098273;28;20021;-81
2023/10/31 04:41:14;;;;;;;1.27;0.60;;;;;;;7.10;100.00;91805.72;2112425;27;20027;-83
2023/10/31 04:42:15;;;;;;;0.68;0.47;;;;;;;7.16;100.00;91796.06;2124191;27;20019;-79
2023/10/31 04:43:16;;;;;;;1.70;0.50;;;;;;;7.15;100.00;91799.88;2112559;27;20027;-80
2023/10/31 04:44:17;;;;;;;0.40;0.40;;;;;;;7.24;100.00;91799.97;2110087;28;20403;-78
2023/10/31 04:45:20;;;;;;;1.65;1.20;;;;;;;7.31;100.00;91800.50;2118660;27;20471;-80
2023/10/31 04:46:21;;;;;;;2.33;0.50;;;;;;;7.17;100.00;91803.59;2123594;27;20025;-81
2023/10/31 04:47:22;;;;;;;1.60;0.70;;;;;;;7.17;100.00;91813.50;2121060;27;20383;-79
2023/10/31 04:48:23;;;;;;;1.20;0.45;;;;;;;7.09;100.00;91810.28;2120403;27;20023;-81
2023/10/31 04:49:24;;;;;;;1.15;0.50;;;;;;;7.03;100.00;91810.09;2113539;27;20058;-82
2023/10/31 04:50:25;;;;;;;1.52;0.50;;;;;;;7.12;100.00;91811.38;2120166;27;20023;-80
2023/10/31 04:51:26;;;;;;;0.90;0.40;;;;;;;7.13;100.00;91812.84;2122859;27;20087;-78